Time;durP1;ratioP1;P1;durP2;ratioP2;P2;SDS_P1;SDS_P2;PMS_P1;PMS_P2;Temp;Humidity;BMP_temperature;BMP_pressure;BME280_temperature;BME280_humidity;BME280_pressure;Samples;Min_cycle;Max_cycle;Signal;HPM_P1;HPM_P2
2022/12/11 00:01:09;;;;;;;23.10;5.07;;;;;;;13.55;84.62;94885.59;5113105;28;20083;-63
2022/12/11 00:03:36;;;;;;;24.42;5.47;;;;;;;13.57;84.37;94854.81;5113130;28;20040;-63
2022/12/11 00:06:10;;;;;;;23.13;5.38;;;;;;;13.56;84.57;94867.09;5113028;28;20091;-63
2022/12/11 00:08:38;;;;;;;22.52;6.05;;;;;;;13.53;84.59;94859.47;5113065;28;20127;-63
2022/12/11 00:11:05;;;;;;;18.73;5.05;;;;;;;13.53;84.59;94851.56;5112970;28;20518;-62
2022/12/11 00:13:32;;;;;;;24.20;5.53;;;;;;;13.55;84.79;94854.09;5112936;28;20389;-63
2022/12/11 00:16:00;;;;;;;25.08;5.70;;;;;;;13.57;84.81;94849.56;5112990;28;20100;-63
2022/12/11 00:18:28;;;;;;;17.17;4.75;;;;;;;13.63;84.41;94849.06;5112973;28;20568;-63
2022/12/11 00:20:55;;;;;;;22.27;5.60;;;;;;;13.63;84.41;94835.94;5115200;28;20051;-63
2022/12/11 00:23:24;;;;;;;19.65;5.72;;;;;;;13.69;84.39;94856.47;5116891;28;20052;-63
2022/12/11 00:25:51;;;;;;;25.55;5.75;;;;;;;13.69;84.44;94838.09;5116775;28;20044;-63
2022/12/11 00:28:19;;;;;;;31.55;5.70;;;;;;;13.68;84.69;94856.59;5116491;28;20089;-63
2022/12/11 00:30:46;;;;;;;31.15;5.70;;;;;;;13.74;84.42;94848.25;5116468;28;20044;-63
2022/12/11 00:33:15;;;;;;;24.10;4.45;;;;;;;13.75;84.34;94850.75;5116455;28;20061;-63
2022/12/11 00:35:45;;;;;;;31.60;5.90;;;;;;;13.77;84.33;94855.88;5116512;28;20047;-63
2022/12/11 00:38:15;;;;;;;22.40;4.72;;;;;;;13.72;84.82;94847.50;5116490;28;20047;-62
2022/12/11 00:40:45;;;;;;;25.83;5.30;;;;;;;13.70;85.21;94821.34;5116373;28;20493;-63
2022/12/11 00:43:13;;;;;;;31.73;6.18;;;;;;;13.74;84.67;94835.94;5116104;28;20047;-63
2022/12/11 00:45:42;;;;;;;36.47;6.57;;;;;;;13.72;85.10;94787.09;5116221;28;20696;-63
2022/12/11 00:48:10;;;;;;;22.70;6.03;;;;;;;13.70;85.37;94778.50;5116142;28;20101;-63
2022/12/11 00:50:38;;;;;;;27.00;5.72;;;;;;;13.66;85.41;94761.31;5116154;28;20060;-63
2022/12/11 00:53:07;;;;;;;28.17;5.20;;;;;;;13.62;85.47;94732.66;5116117;28;20071;-63
2022/12/11 00:55:38;;;;;;;23.33;5.18;;;;;;;13.66;85.51;94717.47;5116065;28;20485;-63
2022/12/11 00:58:07;;;;;;;37.25;5.97;;;;;;;13.68;85.47;94707.69;5115680;28;20138;-63
2022/12/11 01:00:35;;;;;;;35.78;5.72;;;;;;;13.62;85.82;94732.66;5115947;28;20044;-63
2022/12/11 01:03:02;;;;;;;25.65;5.80;;;;;;;13.67;85.62;94711.28;5115872;28;20131;-63
2022/12/11 01:05:30;;;;;;;33.05;5.90;;;;;;;13.64;85.80;94701.03;5115808;28;20123;-63
2022/12/11 01:07:57;;;;;;;36.08;6.60;;;;;;;13.65;85.79;94707.94;5115831;28;20108;-63
2022/12/11 01:10:24;;;;;;;24.88;4.93;;;;;;;13.73;85.10;94721.28;5115708;28;20043;-63
2022/12/11 01:12:51;;;;;;;27.75;4.85;;;;;;;13.76;85.08;94720.22;5115662;28;20482;-63
2022/12/11 01:15:22;;;;;;;34.67;5.32;;;;;;;13.68;85.50;94714.72;5115717;28;20062;-63
2022/12/11 01:17:49;;;;;;;34.70;5.53;;;;;;;13.71;85.32;94709.22;5115679;28;20043;-63
2022/12/11 01:20:17;;;;;;;31.70;5.38;;;;;;;13.69;85.51;94709.34;5115605;28;20047;-63
2022/12/11 01:22:44;;;;;;;38.88;5.43;;;;;;;13.70;85.22;94708.38;5115473;28;20043;-63
2022/12/11 01:25:12;;;;;;;25.20;4.70;;;;;;;13.71;85.15;94681.19;5115594;28;20447;-63
2022/12/11 01:27:40;;;;;;;33.03;5.40;;;;;;;13.75;84.76;94677.34;5115318;28;20451;-63
2022/12/11 01:30:09;;;;;;;21.90;4.57;;;;;;;13.81;84.33;94662.88;5115325;28;20051;-63
2022/12/11 01:32:37;;;;;;;23.65;5.13;;;;;;;13.83;84.27;94683.75;5114406;28;20043;-63
2022/12/11 01:35:06;;;;;;;20.20;5.07;;;;;;;13.79;84.20;94677.09;5115150;28;20044;-64
2022/12/11 01:37:34;;;;;;;25.67;5.30;;;;;;;13.81;84.10;94683.06;5115199;28;20064;-64
2022/12/11 01:40:01;;;;;;;18.88;4.90;;;;;;;13.84;83.75;94686.28;5115147;28;20047;-64
2022/12/11 01:42:28;;;;;;;21.17;4.18;;;;;;;13.86;83.90;94687.00;5115063;28;20146;-64
2022/12/11 01:45:27;;;;;;;20.13;3.92;;;;;;;13.88;83.41;94671.91;5115086;28;20047;-64
2022/12/11 01:48:01;;;;;;;23.90;3.92;;;;;;;13.88;83.52;94669.28;5115039;28;20043;-64
2022/12/11 01:50:29;;;;;;;18.20;3.53;;;;;;;13.93;83.26;94668.09;5115075;28;20109;-64
2022/12/11 01:52:57;;;;;;;18.67;3.35;;;;;;;13.96;83.13;94668.69;5114990;28;20039;-64
2022/12/11 01:55:24;;;;;;;12.80;3.30;;;;;;;14.02;82.93;94655.03;5114767;28;20505;-64
2022/12/11 01:57:53;;;;;;;12.00;2.83;;;;;;;14.10;82.28;94649.16;5114975;28;20079;-64
2022/12/11 02:00:21;;;;;;;18.65;3.95;;;;;;;14.11;82.10;94650.81;5114784;28;20047;-64
2022/12/11 02:02:49;;;;;;;17.17;3.22;;;;;;;14.11;82.30;94645.56;5114715;28;20428;-64
2022/12/11 02:05:17;;;;;;;14.70;2.85;;;;;;;14.06;82.46;94625.88;5114739;28;20381;-63
2022/12/11 02:07:48;;;;;;;14.95;2.92;;;;;;;14.15;82.45;94652.22;5114639;28;20451;-63
2022/12/11 02:10:16;;;;;;;14.65;3.28;;;;;;;14.14;82.16;94642.69;5114509;28;20078;-64
2022/12/11 02:12:55;;;;;;;11.75;3.15;;;;;;;14.17;82.32;94641.59;5114611;28;20047;-64
2022/12/11 02:15:30;;;;;;;12.32;2.55;;;;;;;14.21;81.98;94627.22;5114489;28;20528;-63
2022/12/11 02:18:07;;;;;;;13.30;3.30;;;;;;;14.25;82.02;94635.69;5114431;28;20130;-64
2022/12/11 02:20:40;;;;;;;14.10;2.85;;;;;;;14.26;82.16;94632.09;5114376;28;20096;-64
2022/12/11 02:23:38;;;;;;;15.07;2.80;;;;;;;14.32;82.10;94628.13;5114389;28;20044;-63
2022/12/11 02:26:20;;;;;;;15.40;3.58;;;;;;;14.31;82.04;94603.63;5114318;28;20079;-64
2022/12/11 02:28:53;;;;;;;16.15;3.47;;;;;;;14.26;82.75;94579.50;5114128;28;20055;-63
2022/12/11 02:31:28;;;;;;;11.98;3.50;;;;;;;14.33;82.43;94553.53;5114115;28;20055;-64
2022/12/11 02:34:01;;;;;;;16.70;3.72;;;;;;;14.33;82.58;94566.69;5114235;28;20493;-63
2022/12/11 02:36:34;;;;;;;13.95;3.13;;;;;;;14.35;82.41;94549.81;5114124;28;20481;-63
2022/12/11 02:39:03;;;;;;;13.57;3.38;;;;;;;14.31;82.66;94576.50;5114051;28;20116;-63
2022/12/11 02:41:32;;;;;;;12.93;3.08;;;;;;;14.27;82.97;94560.16;5113852;28;20104;-64
2022/12/11 02:44:04;;;;;;;19.52;2.72;;;;;;;14.27;83.05;94560.97;5113994;28;20100;-63
2022/12/11 02:46:35;;;;;;;12.00;2.78;;;;;;;14.26;83.21;94540.91;5113885;28;20043;-64
2022/12/11 02:49:05;;;;;;;16.33;2.67;;;;;;;14.25;83.24;94549.78;5113804;28;20507;-64
2022/12/11 02:51:38;;;;;;;10.55;2.42;;;;;;;14.20;83.56;94546.69;5113925;28;20051;-63
2022/12/11 02:54:09;;;;;;;13.65;2.75;;;;;;;14.21;83.59;94543.06;5113822;28;20134;-64
2022/12/11 02:56:43;;;;;;;11.50;2.85;;;;;;;14.24;83.39;94555.16;5113933;28;20047;-63
2022/12/11 02:59:18;;;;;;;10.38;2.92;;;;;;;14.22;83.45;94550.03;5113796;28;20130;-64
2022/12/11 03:01:46;;;;;;;11.63;2.90;;;;;;;14.25;83.02;94567.34;5113744;28;20054;-64
2022/12/11 03:04:13;;;;;;;13.93;2.80;;;;;;;14.26;82.90;94546.16;5113679;28;20054;-63
2022/12/11 03:06:45;;;;;;;9.45;2.33;;;;;;;14.28;82.63;94546.88;5113677;28;20047;-63
2022/12/11 03:09:13;;;;;;;9.68;2.28;;;;;;;14.31;82.64;94526.53;5113463;28;20255;-64
2022/12/11 03:11:40;;;;;;;18.90;2.30;;;;;;;14.33;82.43;94532.50;5113524;28;20473;-64
2022/12/11 03:14:10;;;;;;;12.88;2.45;;;;;;;14.32;82.62;94533.44;5113692;28;20043;-64
2022/12/11 03:16:42;;;;;;;15.10;2.25;;;;;;;14.31;82.62;94518.66;5113582;28;20561;-64
2022/12/11 03:19:16;;;;;;;12.32;2.92;;;;;;;14.35;82.33;94505.09;5113632;28;20138;-63
2022/12/11 03:21:52;;;;;;;13.25;2.33;;;;;;;14.40;82.10;94517.88;5113439;28;20606;-63
2022/12/11 03:24:23;;;;;;;8.27;1.85;;;;;;;14.37;82.03;94529.47;5113386;28;20044;-64
2022/12/11 03:26:55;;;;;;;16.88;2.58;;;;;;;14.35;82.32;94514.78;5113471;28;20047;-63
2022/12/11 03:29:26;;;;;;;13.23;2.53;;;;;;;14.40;82.00;94512.59;5113366;28;20051;-63
2022/12/11 03:31:59;;;;;;;14.27;3.42;;;;;;;14.40;81.85;94520.50;5113372;28;20481;-64
2022/12/11 03:34:31;;;;;;;13.50;3.10;;;;;;;14.41;81.74;94501.09;5113486;28;20052;-63
2022/12/11 03:37:01;;;;;;;22.45;2.90;;;;;;;14.45;81.55;94493.81;5113312;28;20043;-63
2022/12/11 03:39:32;;;;;;;15.73;2.92;;;;;;;14.44;81.92;94507.91;5113331;28;20047;-63
2022/12/11 03:42:01;;;;;;;12.40;2.65;;;;;;;14.44;81.81;94506.09;5113139;28;20078;-64
2022/12/11 03:44:32;;;;;;;13.70;2.92;;;;;;;14.41;82.03;94511.63;5113231;28;20124;-64
2022/12/11 03:47:04;;;;;;;10.35;2.90;;;;;;;14.46;81.75;94519.97;5113427;28;20473;-63
2022/12/11 03:49:36;;;;;;;11.27;2.72;;;;;;;14.44;82.02;94500.84;5113059;28;20055;-64
2022/12/11 03:52:07;;;;;;;13.60;3.03;;;;;;;14.39;82.04;94498.59;5113215;28;20047;-63
2022/12/11 03:54:35;;;;;;;19.58;3.50;;;;;;;14.43;81.63;94501.81;5113436;28;20056;-64
2022/12/11 03:57:04;;;;;;;12.20;2.35;;;;;;;14.43;81.81;94511.50;5117390;28;20047;-64
2022/12/11 03:59:32;;;;;;;14.00;2.47;;;;;;;14.43;81.67;94516.75;5117105;28;20078;-64
2022/12/11 04:02:00;;;;;;;13.73;2.78;;;;;;;14.45;81.52;94496.44;5117145;28;20153;-63
2022/12/11 04:04:27;;;;;;;14.30;3.17;;;;;;;14.44;81.35;94502.63;5117146;28;20082;-63
2022/12/11 04:06:54;;;;;;;19.50;3.78;;;;;;;14.45;81.24;94512.22;5117131;28;20040;-63
2022/12/11 04:09:22;;;;;;;19.55;2.90;;;;;;;14.52;80.94;94510.72;5116913;28;20070;-64
2022/12/11 04:11:49;;;;;;;10.55;2.35;;;;;;;14.48;81.03;94507.50;5116929;28;20066;-64
2022/12/11 04:17:02;;;;;;;16.33;4.00;;;;;;;14.50;80.73;94515.25;5116940;28;20058;-64
2022/12/11 04:25:01;;;;;;;23.15;4.00;;;;;;;14.42;81.96;94508.03;5116866;28;20164;-64
2022/12/11 04:30:15;;;;;;;15.48;3.92;;;;;;;14.38;82.45;94499.59;5116648;28;20054;-64
2022/12/11 04:32:44;;;;;;;20.90;3.37;;;;;;;14.42;82.38;94494.88;5116704;28;20075;-64
2022/12/11 04:35:12;;;;;;;19.83;5.47;;;;;;;14.38;82.27;94491.69;5116464;28;20303;-64
2022/12/11 04:37:40;;;;;;;21.70;3.97;;;;;;;14.33;82.74;94488.63;5116360;28;20476;-64
2022/12/11 04:40:11;;;;;;;20.80;4.28;;;;;;;14.30;82.93;94502.03;5116308;28;20093;-63
2022/12/11 04:42:38;;;;;;;18.77;3.78;;;;;;;14.32;83.04;94509.78;5116061;28;20043;-64
2022/12/11 04:45:07;;;;;;;17.55;4.20;;;;;;;14.35;82.93;94513.00;5116275;28;20044;-63
2022/12/11 04:47:35;;;;;;;26.48;4.72;;;;;;;14.26;83.20;94532.19;5116179;28;20055;-64
2022/12/11 04:50:05;;;;;;;22.63;3.75;;;;;;;14.31;83.30;94530.00;5116115;28;20061;-64
2022/12/11 04:52:32;;;;;;;19.42;4.15;;;;;;;14.31;82.93;94529.16;5116079;28;20046;-64
2022/12/11 04:54:59;;;;;;;20.52;3.95;;;;;;;14.33;83.00;94529.88;5116164;28;20068;-64
2022/12/11 04:57:26;;;;;;;20.98;4.57;;;;;;;14.33;83.20;94533.31;5115986;28;20085;-64
2022/12/11 04:59:54;;;;;;;18.42;4.72;;;;;;;14.28;83.12;94535.53;5115988;28;20048;-64
2022/12/11 05:02:21;;;;;;;18.70;3.22;;;;;;;14.32;83.17;94533.44;5115946;28;20051;-64
2022/12/11 05:04:48;;;;;;;21.08;3.75;;;;;;;14.35;82.66;94530.56;5115842;28;20058;-63
2022/12/11 05:07:20;;;;;;;23.63;4.03;;;;;;;14.36;82.52;94525.16;5114534;28;20047;-64
2022/12/11 05:09:47;;;;;;;24.13;4.15;;;;;;;14.37;82.42;94536.53;5115778;28;20059;-64
2022/12/11 05:12:15;;;;;;;15.70;2.90;;;;;;;14.36;82.31;94555.91;5115815;28;20055;-64
2022/12/11 05:14:42;;;;;;;13.88;3.05;;;;;;;14.40;82.07;94563.41;5115736;28;20048;-63
2022/12/11 05:17:09;;;;;;;20.73;3.22;;;;;;;14.38;82.00;94561.84;5115826;28;20047;-64
2022/12/11 05:19:37;;;;;;;23.75;3.38;;;;;;;14.36;82.13;94556.72;5115610;28;20130;-63
2022/12/11 05:22:04;;;;;;;13.82;3.42;;;;;;;14.38;82.23;94554.81;5115524;28;20447;-64
2022/12/11 05:24:33;;;;;;;21.83;3.60;;;;;;;14.31;82.61;94556.31;5115560;28;20054;-64
2022/12/11 05:27:00;;;;;;;21.27;3.63;;;;;;;14.30;82.74;94564.31;5115581;28;20082;-63
2022/12/11 05:29:28;;;;;;;16.98;2.83;;;;;;;14.30;83.07;94570.38;5115343;28;20047;-63
2022/12/11 05:31:55;;;;;;;19.35;3.20;;;;;;;14.31;83.07;94573.88;5115329;28;20043;-63
2022/12/11 05:34:23;;;;;;;17.00;3.58;;;;;;;14.39;82.60;94571.44;5115376;28;20040;-64
2022/12/11 05:36:50;;;;;;;16.95;3.00;;;;;;;14.37;82.66;94575.97;5115294;28;20086;-64
2022/12/11 05:39:17;;;;;;;16.83;2.60;;;;;;;14.37;82.45;94571.56;5115234;28;20047;-63
2022/12/11 05:41:46;;;;;;;16.65;3.08;;;;;;;14.42;82.29;94586.94;5114848;28;20055;-64
2022/12/11 05:44:14;;;;;;;12.32;3.13;;;;;;;14.44;82.08;94599.94;5115200;28;20040;-63
2022/12/11 05:46:50;;;;;;;20.88;3.30;;;;;;;14.37;82.54;94586.50;5115101;28;20044;-63
2022/12/11 05:49:30;;;;;;;12.40;3.20;;;;;;;14.36;82.39;94588.28;5114950;28;20055;-63
2022/12/11 05:52:01;;;;;;;18.85;3.13;;;;;;;14.35;82.22;94588.41;5114947;28;20074;-64
2022/12/11 05:54:28;;;;;;;19.92;2.83;;;;;;;14.36;82.40;94576.94;5114901;28;20113;-64
2022/12/11 05:56:58;;;;;;;11.02;2.75;;;;;;;14.40;81.93;94570.47;5114933;28;20485;-63
2022/12/11 05:59:27;;;;;;;17.48;4.10;;;;;;;14.35;81.82;94576.09;5114890;28;20139;-64
2022/12/11 06:01:54;;;;;;;20.48;3.78;;;;;;;14.30;82.33;94577.47;5114849;28;20048;-63
2022/12/11 06:04:23;;;;;;;18.55;5.25;;;;;;;14.36;82.20;94584.84;5114937;28;20104;-64
2022/12/11 06:06:50;;;;;;;33.38;12.30;;;;;;;14.37;81.83;94595.22;5114641;28;20043;-64
2022/12/11 06:09:19;;;;;;;24.17;6.28;;;;;;;14.43;81.67;94596.50;5114550;28;20047;-63
2022/12/11 06:11:47;;;;;;;17.05;3.97;;;;;;;14.52;81.31;94618.56;5114588;28;20097;-64
2022/12/11 06:14:18;;;;;;;17.45;4.28;;;;;;;14.63;80.60;94618.47;5114498;28;20093;-64
2022/12/11 06:16:46;;;;;;;24.02;4.68;;;;;;;14.80;80.11;94623.28;5114493;28;20044;-64
2022/12/11 06:19:16;;;;;;;16.83;3.45;;;;;;;15.05;79.00;94614.09;5113972;28;20126;-63
2022/12/11 06:21:47;;;;;;;17.17;3.20;;;;;;;15.36;77.12;94619.34;5114370;28;20123;-64
2022/12/11 06:24:15;;;;;;;13.52;3.20;;;;;;;15.47;76.31;94634.19;5114280;28;20100;-64
2022/12/11 06:26:42;;;;;;;14.50;4.65;;;;;;;15.52;76.14;94639.91;5114417;28;20105;-64
2022/12/11 06:29:13;;;;;;;12.23;2.10;;;;;;;15.49;75.65;94640.16;5114259;28;20096;-64
2022/12/11 06:31:43;;;;;;;17.23;4.00;;;;;;;15.45;75.67;94645.84;5114252;28;20048;-64
2022/12/11 06:34:13;;;;;;;17.88;5.97;;;;;;;15.42;75.88;94646.94;5114241;28;20122;-64
2022/12/11 06:36:40;;;;;;;14.30;4.40;;;;;;;15.45;75.49;94648.47;5114165;28;20146;-64
2022/12/11 06:39:08;;;;;;;15.35;4.05;;;;;;;15.43;75.49;94650.41;5114125;28;20040;-64
2022/12/11 06:41:38;;;;;;;13.20;3.70;;;;;;;15.43;75.70;94651.25;5113623;28;20058;-64
2022/12/11 06:44:06;;;;;;;17.90;3.08;;;;;;;15.37;75.37;94641.25;5114014;28;20062;-64
2022/12/11 06:46:35;;;;;;;13.38;2.42;;;;;;;15.28;75.73;94643.72;5113952;28;20086;-64
2022/12/11 06:49:10;;;;;;;18.13;3.13;;;;;;;15.14;76.08;94649.38;5113794;28;20055;-64
2022/12/11 06:51:38;;;;;;;11.23;2.28;;;;;;;15.09;76.50;94648.91;5113821;28;20075;-64
2022/12/11 06:54:05;;;;;;;8.27;2.85;;;;;;;15.04;76.73;94646.69;5113809;28;20048;-64
2022/12/11 06:56:37;;;;;;;14.27;3.00;;;;;;;15.10;76.85;94650.56;5113755;28;20073;-64
2022/12/11 06:59:04;;;;;;;10.88;2.47;;;;;;;15.17;76.85;94662.25;5113712;28;20047;-64
2022/12/11 07:01:33;;;;;;;11.35;2.45;;;;;;;15.30;76.10;94669.94;5113802;28;20055;-64
2022/12/11 07:04:09;;;;;;;12.50;2.22;;;;;;;15.56;75.22;94672.06;5113683;28;20096;-64
2022/12/11 07:06:48;;;;;;;12.30;3.58;;;;;;;15.77;74.64;94668.50;5113647;28;20069;-64
2022/12/11 07:09:17;;;;;;;13.80;3.35;;;;;;;15.85;73.64;94665.19;5112959;28;20092;-64
2022/12/11 07:11:45;;;;;;;8.43;2.27;;;;;;;15.83;73.03;94664.50;5113484;28;20055;-64
2022/12/11 07:14:15;;;;;;;8.32;2.53;;;;;;;15.86;73.32;94670.31;5113627;28;20097;-64
2022/12/11 07:16:42;;;;;;;15.55;3.40;;;;;;;15.94;73.02;94664.38;5113541;28;20050;-63
2022/12/11 07:19:13;;;;;;;13.30;4.90;;;;;;;15.89;72.80;94666.56;5113043;28;20093;-64
2022/12/11 07:21:45;;;;;;;7.60;2.50;;;;;;;15.81;72.46;94662.00;5113505;28;20101;-63
2022/12/11 07:24:18;;;;;;;7.10;2.15;;;;;;;15.81;72.56;94661.16;5113289;28;20051;-63
2022/12/11 07:26:51;;;;;;;8.27;1.92;;;;;;;15.81;72.03;94655.91;5113358;28;20058;-63
2022/12/11 07:29:19;;;;;;;10.50;2.05;;;;;;;15.81;71.94;94653.25;5113151;28;20048;-63
2022/12/11 07:32:06;;;;;;;12.35;2.75;;;;;;;15.84;72.34;94660.91;5117520;28;20043;-63
2022/12/11 07:34:35;;;;;;;13.85;3.00;;;;;;;15.92;72.08;94659.22;5117624;28;20044;-64
2022/12/11 07:37:08;;;;;;;12.23;3.15;;;;;;;16.01;72.22;94668.16;5117667;28;20750;-63
2022/12/11 07:39:38;;;;;;;11.93;2.70;;;;;;;16.17;71.87;94674.69;5117373;28;20048;-63
2022/12/11 07:42:18;;;;;;;10.75;3.45;;;;;;;16.35;71.32;94668.72;5117285;28;20062;-64
2022/12/11 07:44:52;;;;;;;12.13;3.80;;;;;;;16.57;69.91;94677.28;5117409;28;20047;-64
2022/12/11 07:47:21;;;;;;;9.65;3.58;;;;;;;16.87;69.65;94667.50;5117371;28;20046;-63
2022/12/11 07:49:57;;;;;;;11.35;2.42;;;;;;;17.00;67.63;94672.47;5117244;28;20550;-63
2022/12/11 07:52:41;;;;;;;10.30;3.10;;;;;;;16.94;67.11;94679.16;5117047;28;20493;-63
2022/12/11 07:55:25;;;;;;;11.35;2.38;;;;;;;16.91;67.10;94682.94;5113375;28;20127;-64
2022/12/11 07:58:05;;;;;;;8.27;3.00;;;;;;;16.81;66.84;94682.13;5117307;28;20139;-64
2022/12/11 08:00:40;;;;;;;16.52;3.00;;;;;;;16.75;67.26;94677.41;5117264;28;20074;-63
2022/12/11 08:03:21;;;;;;;8.23;2.60;;;;;;;16.76;67.68;94674.63;5117170;28;20481;-63
2022/12/11 08:05:51;;;;;;;8.15;2.38;;;;;;;16.51;67.72;94676.91;5117038;28;20050;-63
2022/12/11 08:08:39;;;;;;;8.50;2.30;;;;;;;16.90;67.09;94672.50;5117040;28;20557;-63
2022/12/11 08:11:16;;;;;;;7.53;2.15;;;;;;;17.11;66.02;94671.50;5116919;28;20059;-63
2022/12/11 08:13:48;;;;;;;10.23;2.47;;;;;;;17.45;64.81;94667.47;5116918;28;20485;-64
2022/12/11 08:16:26;;;;;;;12.73;2.47;;;;;;;18.12;62.23;94664.56;5116900;28;20051;-63
2022/12/11 08:18:55;;;;;;;6.38;1.83;;;;;;;18.81;59.69;94665.75;5116730;28;20493;-64
2022/12/11 08:21:50;;;;;;;16.80;2.67;;;;;;;19.26;58.58;94660.44;5116751;28;20047;-64
2022/12/11 08:24:22;;;;;;;11.73;2.63;;;;;;;19.91;56.42;94672.25;5116690;28;20043;-64
2022/12/11 08:26:52;;;;;;;8.52;2.70;;;;;;;20.31;55.28;94671.69;5116880;28;20119;-64
2022/12/11 08:29:25;;;;;;;9.20;2.58;;;;;;;20.58;54.42;94662.56;5116605;28;20047;-64
2022/12/11 08:31:53;;;;;;;13.18;2.92;;;;;;;20.77;53.27;94671.16;5116232;28;20135;-64
2022/12/11 08:34:22;;;;;;;9.13;2.10;;;;;;;20.91;52.75;94666.22;5116536;28;20055;-64
2022/12/11 08:36:56;;;;;;;14.80;2.60;;;;;;;20.39;53.94;94662.91;5116415;28;20079;-64
2022/12/11 08:39:33;;;;;;;6.60;2.05;;;;;;;20.00;54.29;94667.81;5115220;28;20055;-64
2022/12/11 08:42:01;;;;;;;11.20;2.28;;;;;;;19.41;55.81;94658.84;5115901;28;20536;-64
2022/12/11 08:44:37;;;;;;;11.30;2.20;;;;;;;18.94;57.11;94658.22;5116355;28;20044;-64
2022/12/11 08:47:05;;;;;;;11.77;2.22;;;;;;;18.50;58.61;94655.63;5116234;28;20073;-64
2022/12/11 08:49:33;;;;;;;11.45;2.25;;;;;;;18.22;59.61;94640.69;5116156;28;20525;-64
2022/12/11 08:52:05;;;;;;;10.15;2.42;;;;;;;18.10;60.53;94634.81;5116153;28;20055;-64
2022/12/11 08:54:33;;;;;;;11.75;2.72;;;;;;;18.46;59.80;94641.03;5116075;28;20073;-64
2022/12/11 08:57:02;;;;;;;8.65;2.20;;;;;;;18.89;59.05;94636.69;5116047;28;20043;-64
2022/12/11 08:59:29;;;;;;;5.63;1.80;;;;;;;19.04;57.96;94633.47;5115955;28;20139;-64
2022/12/11 09:01:59;;;;;;;9.50;2.47;;;;;;;19.00;57.80;94640.91;5116097;28;20077;-63
2022/12/11 09:04:28;;;;;;;7.10;2.00;;;;;;;18.79;57.71;94639.44;5116022;28;20054;-64
2022/12/11 09:06:56;;;;;;;8.50;2.40;;;;;;;18.57;58.36;94646.06;5115959;28;20044;-64
2022/12/11 09:09:25;;;;;;;11.57;2.30;;;;;;;18.45;59.14;94642.84;5115829;28;20052;-64
2022/12/11 09:11:54;;;;;;;12.73;2.92;;;;;;;18.33;59.10;94646.72;5115724;28;20048;-64
2022/12/11 09:14:21;;;;;;;11.45;2.67;;;;;;;18.16;59.57;94641.28;5115742;28;20051;-64
2022/12/11 09:16:49;;;;;;;10.63;2.40;;;;;;;18.00;60.83;94647.25;5115629;28;20120;-63
2022/12/11 09:19:16;;;;;;;10.55;2.47;;;;;;;18.01;60.73;94649.75;5115570;28;20134;-63
2022/12/11 09:21:46;;;;;;;9.38;2.15;;;;;;;17.97;60.65;94642.25;5115627;28;20101;-64
2022/12/11 09:24:14;;;;;;;9.80;2.22;;;;;;;17.97;61.15;94647.53;5115490;28;20044;-64
2022/12/11 09:26:46;;;;;;;8.75;2.47;;;;;;;17.81;61.05;94641.09;5115577;28;20100;-64
2022/12/11 09:29:14;;;;;;;5.93;1.85;;;;;;;17.71;59.92;94635.88;5115486;28;20046;-64
2022/12/11 09:31:45;;;;;;;11.25;2.22;;;;;;;17.63;60.59;94623.41;5115415;28;20079;-64
2022/12/11 09:34:17;;;;;;;11.93;2.38;;;;;;;17.63;60.67;94620.75;5115427;28;20055;-64
2022/12/11 09:36:46;;;;;;;12.65;3.08;;;;;;;17.65;61.19;94620.63;5115326;28;20073;-64
2022/12/11 09:39:15;;;;;;;5.80;2.33;;;;;;;17.70;60.75;94614.88;5115280;28;20079;-63
2022/12/11 09:41:54;;;;;;;5.82;2.22;;;;;;;17.72;60.17;94612.91;5114879;28;20044;-64
2022/12/11 09:44:31;;;;;;;9.85;2.30;;;;;;;17.72;61.08;94615.53;5115159;28;20126;-64
2022/12/11 09:47:15;;;;;;;6.82;2.00;;;;;;;17.75;60.24;94628.47;5115226;28;20047;-64
2022/12/11 09:49:50;;;;;;;12.35;2.13;;;;;;;17.83;60.66;94623.28;5114970;28;20100;-64
2022/12/11 09:52:24;;;;;;;9.70;1.98;;;;;;;17.80;60.27;94608.56;5114471;28;20481;-64
2022/12/11 09:54:57;;;;;;;7.20;2.30;;;;;;;17.87;59.21;94610.56;5114913;28;20409;-64
2022/12/11 09:57:45;;;;;;;13.27;2.40;;;;;;;17.80;59.60;94615.66;5114720;28;20378;-64
2022/12/11 10:00:25;;;;;;;10.88;2.55;;;;;;;17.78;60.16;94609.66;5114841;28;20483;-64
2022/12/11 10:03:26;;;;;;;9.77;2.53;;;;;;;17.68;59.85;94605.31;5114817;28;20079;-64
2022/12/11 10:06:04;;;;;;;12.75;3.35;;;;;;;17.67;60.14;94600.97;5114613;28;20486;-64
2022/12/11 10:08:39;;;;;;;6.38;2.30;;;;;;;17.78;60.11;94601.72;5114643;28;20083;-64
2022/12/11 10:11:23;;;;;;;11.70;2.30;;;;;;;17.90;60.22;94592.59;5114317;28;20048;-64
2022/12/11 10:13:59;;;;;;;14.95;2.45;;;;;;;17.90;58.71;94584.66;5114486;28;20048;-63
2022/12/11 10:16:36;;;;;;;11.00;2.22;;;;;;;17.85;60.30;94573.69;5114382;28;20127;-64
2022/12/11 10:19:04;;;;;;;9.65;2.08;;;;;;;17.91;59.53;94567.81;5114359;28;20048;-64
2022/12/11 10:21:43;;;;;;;12.10;2.10;;;;;;;17.92;59.63;94569.50;5114445;28;20086;-64
2022/12/11 10:24:21;;;;;;;10.35;2.67;;;;;;;17.88;59.73;94573.41;5114394;28;20047;-63
2022/12/11 10:26:56;;;;;;;8.93;1.95;;;;;;;17.88;60.05;94568.13;5114025;28;20059;-64
2022/12/11 10:29:26;;;;;;;8.57;2.70;;;;;;;17.89;59.98;94579.53;5114118;28;20130;-61
2022/12/11 10:31:57;;;;;;;9.55;2.10;;;;;;;17.89;60.10;94584.81;5127685;27;20450;-63
2022/12/11 10:34:34;;;;;;;12.90;3.03;;;;;;;17.85;60.71;94588.75;5134777;27;20039;-63
2022/12/11 10:37:03;;;;;;;9.77;2.45;;;;;;;17.85;60.61;94592.22;5134578;27;20431;-63
2022/12/11 10:39:32;;;;;;;9.40;2.55;;;;;;;17.62;61.23;94595.31;5134724;27;20492;-62
2022/12/11 10:42:00;;;;;;;16.58;3.72;;;;;;;17.56;61.52;94601.19;5133867;27;20079;-63
2022/12/11 10:44:32;;;;;;;13.65;2.83;;;;;;;17.34;62.86;94611.19;5134577;27;20134;-62
2022/12/11 10:47:04;;;;;;;12.65;3.25;;;;;;;17.24;62.71;94605.97;5134404;27;20076;-63
2022/12/11 10:49:34;;;;;;;9.20;3.25;;;;;;;17.18;62.54;94601.25;5134385;27;20043;-61
2022/12/11 10:52:09;;;;;;;5.97;2.03;;;;;;;17.09;62.93;94589.78;5134286;27;20103;-62
2022/12/11 10:54:39;;;;;;;11.63;3.20;;;;;;;17.01;63.54;94595.75;5134470;27;20499;-63
2022/12/11 10:57:09;;;;;;;7.82;2.90;;;;;;;17.00;64.39;94599.38;5134347;27;20043;-61
2022/12/11 10:59:44;;;;;;;11.55;2.85;;;;;;;16.95;64.01;94592.88;5134364;27;20047;-64
2022/12/11 11:02:22;;;;;;;12.48;2.60;;;;;;;16.95;64.45;94587.59;5134077;27;20055;-64
2022/12/11 11:04:52;;;;;;;9.77;2.05;;;;;;;16.84;64.05;94591.22;5134050;27;20043;-63
2022/12/11 11:07:22;;;;;;;12.30;2.35;;;;;;;16.78;64.87;94588.22;5134195;27;20465;-64
2022/12/11 11:09:53;;;;;;;8.10;2.00;;;;;;;16.77;65.40;94575.97;5134229;27;20047;-61
2022/12/11 11:12:23;;;;;;;8.07;2.47;;;;;;;16.85;64.80;94569.13;5133983;27;20739;-62
2022/12/11 11:15:01;;;;;;;8.73;2.70;;;;;;;16.90;65.08;94564.25;5134203;27;20039;-63
2022/12/11 11:17:30;;;;;;;9.38;2.58;;;;;;;16.90;65.59;94554.53;5134117;27;20051;-64
2022/12/11 11:20:01;;;;;;;11.73;3.20;;;;;;;17.01;65.00;94558.78;5134048;27;20075;-64
2022/12/11 11:22:28;;;;;;;8.75;2.42;;;;;;;17.06;64.70;94558.34;5134032;27;20497;-63
2022/12/11 11:25:03;;;;;;;13.73;2.22;;;;;;;17.13;65.64;94562.09;5134147;27;20054;-64
2022/12/11 11:27:37;;;;;;;7.57;2.70;;;;;;;17.15;64.73;94556.66;5133880;28;20043;-64
2022/12/11 11:30:17;;;;;;;12.88;2.58;;;;;;;17.18;65.59;94553.72;5134066;28;20080;-62
2022/12/11 11:32:44;;;;;;;7.55;2.03;;;;;;;17.17;65.03;94544.97;5133817;28;20654;-62
2022/12/11 11:35:20;;;;;;;10.38;2.60;;;;;;;17.21;64.94;94548.13;5133939;28;20043;-64
2022/12/11 11:37:56;;;;;;;9.13;2.55;;;;;;;17.22;64.59;94548.97;5133958;28;20043;-63
2022/12/11 11:40:29;;;;;;;13.27;2.60;;;;;;;17.11;65.31;94555.28;5133884;28;20047;-62
2022/12/11 11:43:07;;;;;;;10.25;2.53;;;;;;;17.10;65.48;94551.81;5133770;28;20055;-62
2022/12/11 11:45:41;;;;;;;14.68;3.17;;;;;;;17.13;65.77;94554.16;5133821;28;20047;-62
2022/12/11 11:48:22;;;;;;;17.05;2.65;;;;;;;17.05;65.69;94554.88;5133557;28;20134;-62
2022/12/11 11:50:51;;;;;;;12.68;3.10;;;;;;;17.03;65.87;94540.16;5133749;28;20412;-62
2022/12/11 11:53:26;;;;;;;12.45;3.15;;;;;;;17.03;65.70;94535.72;5133671;28;20134;-64
2022/12/11 11:56:03;;;;;;;8.80;2.33;;;;;;;17.09;65.69;94547.50;5133682;28;20039;-62